Time;durP1;ratioP1;P1;durP2;ratioP2;P2;SDS_P1;SDS_P2;PMS_P1;PMS_P2;Temp;Humidity;BMP_temperature;BMP_pressure;BME280_temperature;BME280_humidity;BME280_pressure;Samples;Min_cycle;Max_cycle;Signal;HPM_P1;HPM_P2
2021/06/19 00:00:18;;;;;;;21.20;19.00;;;22.70;99.90;;;;;;5070888;28;20651;-76
2021/06/19 00:02:45;;;;;;;23.65;19.50;;;22.70;99.90;;;;;;5069677;28;20225;-76
2021/06/19 00:05:14;;;;;;;21.05;18.73;;;22.70;99.90;;;;;;5069643;28;20205;-76
2021/06/19 00:07:41;;;;;;;21.55;19.35;;;22.70;99.90;;;;;;5062235;28;20533;-76
2021/06/19 00:10:09;;;;;;;21.58;19.30;;;22.80;99.90;;;;;;5068555;28;20558;-76
2021/06/19 00:12:38;;;;;;;21.45;18.13;;;22.80;99.90;;;;;;5062566;28;20206;-76
2021/06/19 00:15:07;;;;;;;19.70;17.63;;;22.80;99.90;;;;;;5066993;28;20202;-76
2021/06/19 00:17:35;;;;;;;21.30;19.10;;;22.80;99.90;;;;;;5070513;28;20202;-76
2021/06/19 00:20:02;;;;;;;22.02;19.67;;;22.80;99.90;;;;;;5074877;28;20213;-76
2021/06/19 00:22:29;;;;;;;21.75;19.45;;;22.70;99.90;;;;;;5070929;28;20214;-76
2021/06/19 00:24:55;;;;;;;21.27;18.85;;;22.60;99.90;;;;;;5068241;28;20209;-76
2021/06/19 00:27:22;;;;;;;21.52;19.30;;;22.60;99.90;;;;;;5074621;28;20567;-76
2021/06/19 00:29:51;;;;;;;20.55;18.35;;;22.60;99.90;;;;;;5070263;28;20209;-76
2021/06/19 00:32:17;;;;;;;22.02;18.48;;;22.80;99.90;;;;;;5070376;28;20372;-76
2021/06/19 00:34:44;;;;;;;21.27;18.83;;;22.80;99.90;;;;;;5074986;28;20204;-76
2021/06/19 00:37:12;;;;;;;21.33;19.13;;;22.80;99.90;;;;;;5073462;28;20206;-77
2021/06/19 00:39:39;;;;;;;21.83;19.70;;;22.60;99.90;;;;;;5076192;28;20209;-76
2021/06/19 00:42:07;;;;;;;22.52;19.95;;;22.80;99.90;;;;;;5076027;28;20595;-76
2021/06/19 00:44:33;;;;;;;22.08;19.73;;;22.60;99.90;;;;;;5074884;28;20210;-76
2021/06/19 00:47:02;;;;;;;24.17;19.98;;;22.70;99.90;;;;;;5072372;28;20221;-76
2021/06/19 00:49:29;;;;;;;21.83;19.27;;;22.70;99.90;;;;;;5071738;28;20713;-77
2021/06/19 00:51:56;;;;;;;22.13;19.27;;;22.80;99.90;;;;;;5080848;28;20194;-76
2021/06/19 00:54:23;;;;;;;21.70;19.33;;;22.70;99.90;;;;;;5078436;28;20627;-76
2021/06/19 00:56:51;;;;;;;24.17;21.55;;;22.70;99.90;;;;;;5065615;28;20199;-76
2021/06/19 00:59:18;;;;;;;24.38;20.08;;;22.70;99.90;;;;;;5074331;28;20213;-76
2021/06/19 01:01:45;;;;;;;23.65;21.08;;;22.60;99.90;;;;;;5077170;28;20305;-76
2021/06/19 01:04:14;;;;;;;25.17;20.85;;;22.50;99.90;;;;;;5075127;28;20218;-76
2021/06/19 01:06:41;;;;;;;23.42;21.02;;;22.50;99.90;;;;;;5078012;28;20198;-76
2021/06/19 01:09:09;;;;;;;24.02;20.23;;;22.40;99.90;;;;;;5075412;28;20210;-76
2021/06/19 01:11:38;;;;;;;21.58;19.15;;;22.40;99.90;;;;;;5074387;28;20195;-76
2021/06/19 01:14:05;;;;;;;22.65;19.60;;;22.50;99.90;;;;;;5066428;28;20629;-76
2021/06/19 01:16:33;;;;;;;25.10;20.45;;;22.50;99.90;;;;;;5073136;28;20198;-77
2021/06/19 01:19:00;;;;;;;23.60;20.42;;;22.40;99.90;;;;;;5072353;28;20201;-76
2021/06/19 01:21:30;;;;;;;21.48;18.73;;;22.40;99.90;;;;;;5065388;28;20244;-76
2021/06/19 01:23:58;;;;;;;25.50;19.30;;;22.40;99.90;;;;;;5069869;28;20237;-76
2021/06/19 01:26:28;;;;;;;24.88;20.00;;;22.40;99.90;;;;;;5074480;28;20225;-76
2021/06/19 01:28:57;;;;;;;23.40;20.88;;;22.40;99.90;;;;;;5074190;28;20561;-77
2021/06/19 01:31:26;;;;;;;23.13;20.23;;;22.30;99.90;;;;;;5074718;28;20199;-76
2021/06/19 01:33:53;;;;;;;22.55;19.40;;;22.30;99.90;;;;;;5074621;28;20652;-76
2021/06/19 01:36:23;;;;;;;21.42;19.13;;;22.30;99.90;;;;;;5076613;28;20626;-76
2021/06/19 01:38:52;;;;;;;23.52;19.80;;;22.30;99.90;;;;;;5082004;28;20204;-76
2021/06/19 01:41:21;;;;;;;21.67;19.33;;;22.20;99.90;;;;;;5073481;28;20198;-77
2021/06/19 01:43:57;;;;;;;23.40;20.30;;;22.30;99.90;;;;;;5074928;28;20241;-77
2021/06/19 01:46:24;;;;;;;22.52;19.42;;;22.30;99.90;;;;;;5074365;28;20277;-76
2021/06/19 01:48:51;;;;;;;23.30;19.98;;;22.30;99.90;;;;;;5074322;28;20210;-76
2021/06/19 01:51:18;;;;;;;23.85;20.77;;;22.40;99.90;;;;;;5073547;28;20202;-76
2021/06/19 01:53:46;;;;;;;25.38;19.45;;;22.40;99.90;;;;;;5074920;28;20228;-76
2021/06/19 01:56:14;;;;;;;21.63;18.30;;;22.40;99.90;;;;;;5073308;28;20288;-76
2021/06/19 01:58:41;;;;;;;25.05;21.10;;;22.40;99.90;;;;;;5067436;28;20202;-76
2021/06/19 02:01:12;;;;;;;23.58;19.95;;;22.40;99.90;;;;;;5072534;28;20233;-75
2021/06/19 02:03:39;;;;;;;22.52;20.05;;;22.40;99.90;;;;;;5074118;28;20287;-75
2021/06/19 02:06:06;;;;;;;25.95;19.50;;;22.30;99.90;;;;;;5074136;28;20571;-75
2021/06/19 02:08:33;;;;;;;21.77;18.63;;;22.40;99.90;;;;;;5060051;28;20198;-75
2021/06/19 02:11:01;;;;;;;23.35;19.42;;;22.30;99.90;;;;;;5073014;28;20209;-76
2021/06/19 02:13:28;;;;;;;23.42;19.45;;;22.30;99.90;;;;;;5073231;28;20198;-75
2021/06/19 02:15:56;;;;;;;20.35;17.88;;;22.30;99.90;;;;;;5075810;28;20198;-76
2021/06/19 02:18:25;;;;;;;22.83;18.67;;;22.40;99.90;;;;;;5074092;28;20206;-76
2021/06/19 02:20:53;;;;;;;25.00;19.35;;;22.40;99.90;;;;;;5073075;28;20198;-75
2021/06/19 02:23:21;;;;;;;22.92;18.50;;;22.40;99.90;;;;;;5073958;28;20222;-75
2021/06/19 02:25:51;;;;;;;19.55;17.15;;;22.30;99.90;;;;;;5074253;28;20198;-75
2021/06/19 02:28:21;;;;;;;19.98;16.90;;;22.40;99.90;;;;;;5070352;28;20202;-75
2021/06/19 02:30:50;;;;;;;19.95;16.73;;;22.40;99.90;;;;;;5062040;28;20226;-75
2021/06/19 02:33:17;;;;;;;24.42;17.52;;;22.40;99.90;;;;;;5078892;28;20190;-75
2021/06/19 02:35:48;;;;;;;22.40;17.88;;;22.30;99.90;;;;;;5072878;28;20652;-75
2021/06/19 02:38:16;;;;;;;21.90;17.45;;;22.30;99.90;;;;;;5076982;28;20203;-75
2021/06/19 02:40:44;;;;;;;23.48;17.85;;;22.30;99.90;;;;;;5070587;28;20209;-75
2021/06/19 02:43:12;;;;;;;21.25;17.73;;;22.40;99.90;;;;;;5064575;28;20214;-75
2021/06/19 02:45:40;;;;;;;20.00;17.90;;;22.30;99.90;;;;;;5070149;28;20198;-75
2021/06/19 02:48:08;;;;;;;22.52;17.98;;;22.30;99.90;;;;;;5068883;28;20204;-75
2021/06/19 02:50:37;;;;;;;19.83;17.13;;;22.30;99.90;;;;;;5072148;28;20210;-75
2021/06/19 02:53:06;;;;;;;24.40;17.15;;;22.40;99.90;;;;;;5070008;28;20198;-76
2021/06/19 02:55:34;;;;;;;20.98;17.33;;;22.40;99.90;;;;;;5072952;28;20203;-75
2021/06/19 02:58:03;;;;;;;23.77;17.00;;;22.50;99.90;;;;;;5077302;28;20220;-75
2021/06/19 03:00:30;;;;;;;20.55;17.33;;;22.50;99.90;;;;;;5071891;28;20202;-74
2021/06/19 03:02:57;;;;;;;22.50;17.85;;;22.40;99.90;;;;;;5071935;28;20230;-74
2021/06/19 03:05:26;;;;;;;22.73;16.38;;;22.40;99.90;;;;;;5064288;28;20271;-74
2021/06/19 03:07:54;;;;;;;20.48;16.60;;;22.50;99.90;;;;;;5072326;28;20198;-74
2021/06/19 03:10:24;;;;;;;19.17;16.27;;;22.50;99.90;;;;;;5072662;28;20213;-74
2021/06/19 03:12:51;;;;;;;22.83;16.88;;;22.60;99.90;;;;;;5077793;28;20198;-74
2021/06/19 03:15:19;;;;;;;21.27;16.13;;;22.60;99.90;;;;;;5072624;28;20640;-74
2021/06/19 03:17:46;;;;;;;18.88;15.70;;;22.70;99.90;;;;;;5072519;28;20288;-74
2021/06/19 03:20:14;;;;;;;21.95;15.07;;;22.60;99.90;;;;;;5072447;28;20208;-74
2021/06/19 03:22:44;;;;;;;18.23;15.63;;;22.60;99.90;;;;;;5077381;28;20208;-74
2021/06/19 03:25:13;;;;;;;22.50;15.88;;;22.60;99.90;;;;;;5072381;28;20202;-74
2021/06/19 03:27:42;;;;;;;19.23;16.15;;;22.70;99.90;;;;;;5072002;28;20639;-74
2021/06/19 03:30:10;;;;;;;20.90;14.68;;;22.70;99.90;;;;;;5072364;28;20198;-74
2021/06/19 03:32:38;;;;;;;19.10;15.65;;;22.60;99.90;;;;;;5072247;28;20637;-74
2021/06/19 03:35:07;;;;;;;20.73;17.00;;;22.60;99.90;;;;;;5072525;28;20202;-74
2021/06/19 03:37:34;;;;;;;23.40;20.05;;;22.60;99.90;;;;;;5071995;28;20204;-74
2021/06/19 03:40:01;;;;;;;22.98;16.60;;;22.60;99.90;;;;;;5072171;28;20606;-73
2021/06/19 03:42:29;;;;;;;22.15;14.45;;;22.60;99.90;;;;;;5072313;28;20198;-72
2021/06/19 03:44:57;;;;;;;18.27;14.60;;;22.70;99.90;;;;;;5072338;28;20207;-72
2021/06/19 03:47:24;;;;;;;21.38;15.35;;;22.60;99.90;;;;;;5072548;28;20230;-72
2021/06/19 03:49:51;;;;;;;21.92;15.38;;;22.60;99.90;;;;;;5072209;28;20235;-72
2021/06/19 03:52:18;;;;;;;18.27;14.95;;;22.60;99.90;;;;;;5071612;28;20285;-72
2021/06/19 03:54:45;;;;;;;19.35;15.05;;;22.50;99.90;;;;;;5071886;28;20570;-72
2021/06/19 03:57:23;;;;;;;18.58;15.10;;;22.50;99.90;;;;;;5054353;28;20656;-72
2021/06/19 03:59:51;;;;;;;22.23;15.52;;;22.60;99.90;;;;;;5047850;28;20233;-72
2021/06/19 04:02:19;;;;;;;18.98;15.52;;;22.60;99.90;;;;;;5065228;28;20206;-72
2021/06/19 04:04:47;;;;;;;18.80;15.70;;;22.60;99.90;;;;;;5067963;28;20595;-72
2021/06/19 04:07:14;;;;;;;20.90;15.27;;;22.50;99.90;;;;;;5072933;28;20193;-72
2021/06/19 04:09:41;;;;;;;20.40;16.25;;;22.50;99.90;;;;;;5073410;28;20202;-72
2021/06/19 04:12:09;;;;;;;19.65;15.43;;;22.60;99.90;;;;;;5076188;28;20206;-72
2021/06/19 04:14:37;;;;;;;19.50;15.55;;;22.70;99.90;;;;;;5069386;28;20201;-72
2021/06/19 04:17:04;;;;;;;21.30;15.80;;;22.60;99.90;;;;;;5079849;28;20197;-72
2021/06/19 04:19:33;;;;;;;18.52;15.27;;;22.60;99.90;;;;;;5080635;28;20220;-72
2021/06/19 04:21:59;;;;;;;20.17;16.40;;;22.90;99.90;;;;;;5070679;28;20564;-72
2021/06/19 04:24:26;;;;;;;18.70;15.55;;;23.10;99.90;;;;;;5071382;28;20321;-72
2021/06/19 04:26:53;;;;;;;21.35;14.70;;;23.40;99.90;;;;;;5069460;28;20526;-72
2021/06/19 04:29:20;;;;;;;17.33;15.07;;;23.40;99.90;;;;;;5067675;28;20212;-72
2021/06/19 04:31:47;;;;;;;18.88;14.98;;;23.40;99.90;;;;;;5063910;28;20729;-72
2021/06/19 04:34:14;;;;;;;20.35;14.73;;;23.40;99.90;;;;;;5071397;28;20296;-73
2021/06/19 04:36:42;;;;;;;16.65;14.93;;;23.50;99.90;;;;;;5068189;28;20203;-73
2021/06/19 04:39:09;;;;;;;16.30;14.10;;;23.80;99.90;;;;;;5072354;28;20202;-73
2021/06/19 04:41:46;;;;;;;18.95;14.13;;;23.60;99.90;;;;;;5070173;28;20637;-73
2021/06/19 04:44:30;;;;;;;17.73;14.27;;;23.60;99.90;;;;;;5069142;28;20214;-73
2021/06/19 04:46:57;;;;;;;17.23;14.13;;;23.60;99.90;;;;;;5068586;28;20198;-73
2021/06/19 04:49:24;;;;;;;17.52;14.35;;;23.60;99.90;;;;;;5072147;28;20216;-73
2021/06/19 04:51:52;;;;;;;20.60;15.30;;;23.70;99.90;;;;;;5071617;28;20621;-73
2021/06/19 04:54:20;;;;;;;16.92;13.23;;;23.70;99.90;;;;;;5071974;28;20282;-73
2021/06/19 04:56:47;;;;;;;18.88;13.40;;;23.70;99.90;;;;;;5071072;28;20209;-73
2021/06/19 04:59:14;;;;;;;19.15;13.30;;;23.60;99.90;;;;;;5071901;28;20534;-71
2021/06/19 05:01:41;;;;;;;15.80;13.07;;;23.80;99.90;;;;;;5070825;28;20212;-72
2021/06/19 05:04:08;;;;;;;17.67;13.20;;;23.90;99.90;;;;;;5072259;28;20228;-72
2021/06/19 05:06:35;;;;;;;17.05;12.55;;;24.10;99.90;;;;;;5074052;28;20656;-72
2021/06/19 05:09:04;;;;;;;17.15;11.70;;;24.20;99.90;;;;;;5074551;28;20201;-77
2021/06/19 05:11:31;;;;;;;16.50;12.18;;;24.30;99.90;;;;;;5070367;28;20620;-76
2021/06/19 05:13:58;;;;;;;18.40;12.35;;;24.40;99.90;;;;;;5064211;28;20213;-77
2021/06/19 05:16:25;;;;;;;15.43;11.70;;;24.50;99.90;;;;;;5068866;28;20633;-77
2021/06/19 05:18:52;;;;;;;15.23;11.63;;;24.40;99.90;;;;;;5069088;28;20206;-77
2021/06/19 05:21:19;;;;;;;17.60;12.10;;;24.40;99.90;;;;;;5076448;28;20296;-77
2021/06/19 05:23:46;;;;;;;20.67;16.52;;;24.60;99.90;;;;;;5058593;28;20313;-77
2021/06/19 05:26:14;;;;;;;19.15;12.20;;;24.50;99.90;;;;;;5071186;28;20682;-77
2021/06/19 05:28:41;;;;;;;17.73;12.25;;;24.40;99.90;;;;;;5069839;28;20704;-77
2021/06/19 05:31:07;;;;;;;15.75;11.63;;;24.30;99.90;;;;;;5071272;28;20285;-77
2021/06/19 05:33:34;;;;;;;16.30;11.50;;;24.40;99.90;;;;;;5066674;28;20656;-77
2021/06/19 05:36:01;;;;;;;15.05;10.85;;;24.30;99.90;;;;;;5061332;28;20207;-77
2021/06/19 05:38:28;;;;;;;18.85;10.88;;;24.50;99.90;;;;;;5063035;28;20199;-77
2021/06/19 05:40:55;;;;;;;21.85;12.65;;;24.50;99.90;;;;;;5060533;28;20213;-77
2021/06/19 05:43:23;;;;;;;15.15;11.20;;;24.80;99.90;;;;;;5069587;28;20658;-77
2021/06/19 05:45:51;;;;;;;14.27;11.10;;;25.80;99.90;;;;;;5065513;28;20294;-77
2021/06/19 05:48:18;;;;;;;16.88;11.48;;;25.10;99.90;;;;;;5068065;28;20195;-77
2021/06/19 05:50:45;;;;;;;13.63;10.88;;;25.10;99.90;;;;;;5065082;28;20202;-78
2021/06/19 05:53:12;;;;;;;15.80;10.02;;;25.00;99.90;;;;;;5058561;28;20804;-78
2021/06/19 05:55:39;;;;;;;14.32;10.18;;;25.20;99.90;;;;;;5070648;28;20191;-77
2021/06/19 05:58:08;;;;;;;12.95;9.90;;;25.20;99.90;;;;;;5072337;28;20223;-77
2021/06/19 06:00:36;;;;;;;14.07;10.35;;;25.00;99.90;;;;;;5069151;28;20203;-77
2021/06/19 06:03:04;;;;;;;16.63;10.02;;;25.00;99.90;;;;;;5068644;28;20245;-77
2021/06/19 06:05:31;;;;;;;15.73;9.85;;;25.00;99.90;;;;;;5065321;28;20229;-77
2021/06/19 06:07:59;;;;;;;12.20;9.50;;;24.90;99.90;;;;;;5062358;28;20685;-77
2021/06/19 06:10:27;;;;;;;12.40;8.95;;;25.00;99.90;;;;;;5068806;28;20206;-78
2021/06/19 06:12:54;;;;;;;12.98;9.02;;;25.10;99.90;;;;;;5071480;28;20629;-77
2021/06/19 06:15:21;;;;;;;14.38;9.05;;;25.20;99.90;;;;;;5073381;28;20237;-77
2021/06/19 06:17:49;;;;;;;10.98;8.60;;;25.20;99.90;;;;;;5070424;28;20209;-77
2021/06/19 06:20:16;;;;;;;12.88;8.43;;;25.40;99.90;;;;;;5061807;28;20194;-77
2021/06/19 06:22:43;;;;;;;13.60;8.18;;;25.30;99.90;;;;;;5070988;28;20538;-77
2021/06/19 06:25:12;;;;;;;11.43;8.73;;;25.10;99.90;;;;;;5062331;28;20231;-77
2021/06/19 06:27:39;;;;;;;12.07;8.18;;;25.20;99.90;;;;;;5065749;28;20557;-76
2021/06/19 06:30:08;;;;;;;13.52;8.50;;;25.30;99.90;;;;;;5064429;28;20209;-76
2021/06/19 06:32:36;;;;;;;14.40;7.65;;;25.30;99.90;;;;;;5075433;28;20202;-77
2021/06/19 06:35:06;;;;;;;11.38;7.10;;;25.20;99.90;;;;;;5068675;28;20204;-77
2021/06/19 06:37:33;;;;;;;9.57;7.28;;;25.50;99.90;;;;;;5061252;28;20234;-77
2021/06/19 06:40:00;;;;;;;8.77;6.90;;;25.50;99.90;;;;;;5069740;28;20205;-77
2021/06/19 06:42:27;;;;;;;11.18;7.03;;;25.60;99.90;;;;;;5066558;28;20211;-77
2021/06/19 06:44:54;;;;;;;14.63;7.85;;;25.50;99.90;;;;;;5067179;28;20261;-77
2021/06/19 06:47:21;;;;;;;10.23;6.32;;;25.60;99.90;;;;;;5070230;28;20202;-77
2021/06/19 06:49:48;;;;;;;7.03;6.30;;;25.60;99.90;;;;;;5067284;28;20294;-76
2021/06/19 06:52:16;;;;;;;10.52;6.63;;;25.70;99.90;;;;;;5069634;28;20207;-76
2021/06/19 06:54:43;;;;;;;10.15;5.97;;;25.60;99.90;;;;;;5078421;28;20194;-76
2021/06/19 06:57:11;;;;;;;9.45;6.30;;;25.80;99.90;;;;;;5072769;28;20537;-76
2021/06/19 06:59:38;;;;;;;8.40;6.00;;;25.80;99.90;;;;;;5071901;28;20198;-76
2021/06/19 07:02:05;;;;;;;8.93;6.10;;;25.80;99.90;;;;;;5074948;28;20202;-76
2021/06/19 07:04:32;;;;;;;8.50;5.72;;;25.70;99.90;;;;;;5072879;28;20697;-76
2021/06/19 07:06:59;;;;;;;10.60;6.53;;;25.70;99.90;;;;;;5072589;28;20198;-77
2021/06/19 07:09:27;;;;;;;8.40;5.78;;;25.80;99.90;;;;;;5072794;28;20293;-76
2021/06/19 07:11:54;;;;;;;9.50;6.38;;;25.80;99.90;;;;;;5072022;28;20198;-76
2021/06/19 07:14:21;;;;;;;7.90;6.22;;;25.70;99.90;;;;;;5071816;28;20562;-76
2021/06/19 07:16:48;;;;;;;10.25;5.95;;;25.80;99.90;;;;;;5071816;28;20222;-76
2021/06/19 07:19:15;;;;;;;8.50;5.63;;;25.70;99.90;;;;;;5072347;28;20245;-76
2021/06/19 07:21:42;;;;;;;8.13;5.28;;;25.80;99.90;;;;;;5072499;28;20547;-76
2021/06/19 07:24:09;;;;;;;8.10;5.57;;;25.90;99.90;;;;;;5080222;28;20205;-76
2021/06/19 07:26:37;;;;;;;7.70;5.82;;;26.00;99.90;;;;;;5077111;28;20202;-76
2021/06/19 07:29:04;;;;;;;10.18;5.40;;;25.80;99.90;;;;;;5073082;28;20568;-76
2021/06/19 07:31:31;;;;;;;8.70;5.05;;;25.90;99.90;;;;;;5077434;28;20288;-76
2021/06/19 07:33:58;;;;;;;6.30;5.38;;;26.00;99.90;;;;;;5075338;28;20202;-76
2021/06/19 07:36:25;;;;;;;9.02;5.68;;;26.00;99.90;;;;;;5072343;28;20198;-75
2021/06/19 07:38:52;;;;;;;8.75;5.78;;;25.80;99.90;;;;;;5071458;28;20209;-76
2021/06/19 07:41:19;;;;;;;6.32;5.60;;;26.00;99.90;;;;;;5068430;28;20684;-75
2021/06/19 07:43:47;;;;;;;7.28;5.40;;;26.20;99.90;;;;;;5071939;28;20204;-76
2021/06/19 07:46:14;;;;;;;8.18;5.53;;;26.10;99.90;;;;;;5071669;28;20229;-77
2021/06/19 07:48:41;;;;;;;9.48;5.70;;;26.10;99.90;;;;;;5072847;28;20210;-76
2021/06/19 07:51:08;;;;;;;9.38;5.22;;;26.20;99.90;;;;;;5071568;28;20225;-77
2021/06/19 07:53:35;;;;;;;6.90;5.28;;;26.10;99.90;;;;;;5072776;28;20209;-77
2021/06/19 07:56:01;;;;;;;7.30;5.45;;;26.00;99.90;;;;;;5074301;28;20198;-76
2021/06/19 07:58:28;;;;;;;8.77;5.22;;;26.20;99.90;;;;;;5071594;28;20213;-77
2021/06/19 08:00:56;;;;;;;7.93;5.50;;;26.30;99.90;;;;;;5071208;28;20205;-76
2021/06/19 08:03:23;;;;;;;7.05;5.53;;;26.40;99.90;;;;;;5071743;28;20209;-77
2021/06/19 08:05:50;;;;;;;8.15;5.25;;;26.40;99.90;;;;;;5070590;28;20221;-76
2021/06/19 08:08:17;;;;;;;6.10;5.18;;;26.40;99.90;;;;;;5071921;28;20204;-77
2021/06/19 08:10:44;;;;;;;7.88;5.97;;;26.40;99.90;;;;;;5071928;28;20697;-77
2021/06/19 08:13:12;;;;;;;8.95;5.75;;;26.40;99.90;;;;;;5082503;28;20664;-77
2021/06/19 08:15:39;;;;;;;10.88;5.85;;;26.30;99.90;;;;;;5072166;28;20194;-76
2021/06/19 08:18:07;;;;;;;8.90;5.72;;;26.40;99.90;;;;;;5072357;28;20245;-77
2021/06/19 08:20:34;;;;;;;7.07;5.35;;;26.50;99.90;;;;;;5071285;28;20201;-77
2021/06/19 08:23:01;;;;;;;8.52;5.32;;;26.60;99.90;;;;;;5072592;28;20404;-76
2021/06/19 08:25:29;;;;;;;9.15;5.45;;;26.70;99.90;;;;;;5071328;28;20735;-78
2021/06/19 08:27:55;;;;;;;8.60;5.65;;;26.60;99.90;;;;;;5071794;28;20194;-78
2021/06/19 08:30:23;;;;;;;10.43;6.22;;;26.60;99.90;;;;;;5070494;28;20194;-78
2021/06/19 08:32:49;;;;;;;6.70;5.85;;;26.60;99.90;;;;;;5080924;28;20663;-77
2021/06/19 08:35:18;;;;;;;6.78;5.40;;;26.70;99.90;;;;;;5072091;28;20282;-77
2021/06/19 08:37:45;;;;;;;5.53;5.03;;;26.60;99.90;;;;;;5072105;28;20202;-78
2021/06/19 08:40:12;;;;;;;9.85;5.45;;;26.80;99.90;;;;;;5074404;28;20293;-78
2021/06/19 08:42:39;;;;;;;8.30;5.68;;;26.90;99.90;;;;;;5086221;28;20194;-78
2021/06/19 08:45:08;;;;;;;8.85;4.97;;;27.20;99.90;;;;;;5075870;28;20229;-78
2021/06/19 08:47:38;;;;;;;7.72;5.35;;;27.50;99.90;;;;;;5076677;28;20648;-78
2021/06/19 08:50:08;;;;;;;6.10;4.97;;;27.70;99.90;;;;;;5075624;28;20201;-78
2021/06/19 08:52:37;;;;;;;6.82;4.78;;;27.80;99.90;;;;;;5074695;28;20198;-78
2021/06/19 08:55:08;;;;;;;9.52;5.38;;;28.00;99.90;;;;;;5081111;28;20573;-78
2021/06/19 08:57:35;;;;;;;9.90;6.00;;;28.30;99.90;;;;;;5075161;28;20209;-78
2021/06/19 09:00:04;;;;;;;7.72;5.13;;;28.20;99.90;;;;;;5075169;28;20205;-78
2021/06/19 09:02:31;;;;;;;7.82;6.15;;;28.10;99.90;;;;;;5074634;28;20560;-78
2021/06/19 09:05:04;;;;;;;11.85;6.20;;;28.30;99.90;;;;;;5073417;28;20558;-78
2021/06/19 09:07:38;;;;;;;9.25;5.95;;;28.20;99.90;;;;;;5071469;28;20202;-78
2021/06/19 09:10:22;;;;;;;10.23;5.50;;;28.30;99.90;;;;;;5073595;28;20203;-78
2021/06/19 09:12:57;;;;;;;9.45;5.35;;;28.70;99.90;;;;;;5073398;28;20194;-78
2021/06/19 09:15:25;;;;;;;8.73;5.63;;;28.30;99.90;;;;;;5074511;28;20664;-78
2021/06/19 09:18:09;;;;;;;6.80;5.25;;;28.10;99.90;;;;;;5077587;28;20512;-78
2021/06/19 09:20:38;;;;;;;6.70;4.13;;;28.10;99.90;;;;;;5066954;28;20206;-78
2021/06/19 09:23:09;;;;;;;6.50;4.22;;;28.70;99.90;;;;;;5073652;28;20210;-78
2021/06/19 09:25:36;;;;;;;5.65;3.90;;;29.10;99.90;;;;;;5073866;28;20219;-78
2021/06/19 09:28:06;;;;;;;5.05;4.00;;;29.50;99.90;;;;;;5073847;28;20198;-78
2021/06/19 09:30:34;;;;;;;7.22;4.43;;;30.10;99.90;;;;;;5073678;28;20217;-78
2021/06/19 09:33:03;;;;;;;8.93;4.35;;;30.40;99.90;;;;;;5070258;28;20202;-78
2021/06/19 09:35:31;;;;;;;5.68;3.60;;;30.50;99.90;;;;;;5074482;28;20585;-78
2021/06/19 09:38:01;;;;;;;3.30;3.10;;;30.70;99.90;;;;;;5074098;28;20279;-78
2021/06/19 09:40:35;;;;;;;6.28;3.30;;;30.70;99.90;;;;;;5068922;28;20212;-78
2021/06/19 09:43:08;;;;;;;3.95;3.50;;;31.00;99.90;;;;;;5074086;28;20206;-78
2021/06/19 09:45:36;;;;;;;4.47;3.42;;;30.50;99.90;;;;;;5069306;28;20672;-78
2021/06/19 09:48:03;;;;;;;4.35;3.15;;;30.90;99.90;;;;;;5074819;28;20285;-78
2021/06/19 09:50:29;;;;;;;3.42;3.10;;;31.20;99.90;;;;;;5072243;28;20198;-78
2021/06/19 09:52:56;;;;;;;5.40;3.25;;;31.00;99.90;;;;;;5082773;28;20194;-78
2021/06/19 09:55:23;;;;;;;3.10;2.90;;;31.00;99.90;;;;;;5074590;28;20195;-78
2021/06/19 09:57:52;;;;;;;3.55;2.90;;;31.30;99.90;;;;;;5074217;28;20213;-78
2021/06/19 10:00:21;;;;;;;3.55;2.70;;;31.20;99.90;;;;;;5073466;28;20279;-78
2021/06/19 10:02:48;;;;;;;6.80;2.85;;;31.20;99.90;;;;;;5074651;28;20225;-78
2021/06/19 10:05:15;;;;;;;5.15;3.35;;;31.50;99.90;;;;;;5074119;28;20218;-78
2021/06/19 10:07:43;;;;;;;3.65;2.53;;;31.30;99.90;;;;;;5070736;28;20206;-78
2021/06/19 10:10:11;;;;;;;3.30;3.08;;;31.20;99.90;;;;;;5074492;28;20198;-78
2021/06/19 10:12:40;;;;;;;3.83;2.45;;;31.50;99.90;;;;;;5077241;28;20293;-78
2021/06/19 10:15:11;;;;;;;2.83;2.60;;;31.80;99.90;;;;;;5073147;28;20194;-78
2021/06/19 10:17:40;;;;;;;3.10;2.50;;;32.20;99.90;;;;;;5073808;28;20194;-78
2021/06/19 10:20:11;;;;;;;3.35;2.22;;;31.80;99.90;;;;;;5071720;28;20205;-78
2021/06/19 10:22:40;;;;;;;2.35;2.15;;;31.90;99.90;;;;;;5073347;28;20214;-78
2021/06/19 10:25:10;;;;;;;2.50;2.30;;;32.10;99.90;;;;;;5082639;28;20936;-78
2021/06/19 10:27:40;;;;;;;5.70;2.30;;;32.10;99.90;;;;;;5077271;28;20242;-77
2021/06/19 10:30:11;;;;;;;3.65;2.40;;;31.80;99.90;;;;;;5069694;28;20221;-77
2021/06/19 10:32:39;;;;;;;2.95;2.65;;;31.40;99.90;;;;;;5069278;28;20214;-77
2021/06/19 10:35:07;;;;;;;3.10;2.70;;;31.50;99.90;;;;;;5068445;28;20267;-77
2021/06/19 10:37:34;;;;;;;2.88;2.65;;;31.50;99.90;;;;;;5069655;28;20598;-78
2021/06/19 10:40:20;;;;;;;3.95;2.80;;;31.80;99.90;;;;;;5070229;28;20214;-79
2021/06/19 10:42:48;;;;;;;2.70;2.47;;;32.50;99.90;;;;;;5080304;28;20727;-78
2021/06/19 10:45:23;;;;;;;4.85;2.40;;;32.30;99.90;;;;;;5069399;28;20222;-78
2021/06/19 10:48:03;;;;;;;3.38;2.50;;;32.70;99.90;;;;;;5070099;28;20671;-78
2021/06/19 10:50:30;;;;;;;2.50;2.30;;;32.20;99.90;;;;;;5070724;28;20202;-78
2021/06/19 10:53:08;;;;;;;4.53;3.53;;;32.50;99.90;;;;;;5070146;28;20570;-78
2021/06/19 10:55:37;;;;;;;3.28;2.10;;;32.50;99.90;;;;;;5068913;28;20198;-78
2021/06/19 10:58:18;;;;;;;2.60;2.40;;;32.40;99.90;;;;;;5069166;28;20214;-77
2021/06/19 11:00:49;;;;;;;5.75;2.55;;;32.40;99.90;;;;;;5065158;28;20207;-78
2021/06/19 11:03:17;;;;;;;6.05;2.55;;;32.60;99.90;;;;;;5068553;28;20213;-77
2021/06/19 11:05:58;;;;;;;2.95;2.60;;;32.50;99.90;;;;;;5070202;28;20396;-78
2021/06/19 11:08:25;;;;;;;3.60;2.38;;;32.40;99.90;;;;;;5069576;28;20232;-78
2021/06/19 11:10:55;;;;;;;3.88;2.42;;;32.40;99.90;;;;;;5069106;28;20210;-78
2021/06/19 11:13:41;;;;;;;2.67;2.47;;;32.20;99.90;;;;;;5068620;28;20206;-78
2021/06/19 11:16:51;;;;;;;3.35;2.35;;;32.90;99.90;;;;;;5061107;28;20201;-77
2021/06/19 11:19:44;;;;;;;3.35;2.38;;;32.50;99.90;;;;;;5069227;28;20210;-78
2021/06/19 11:22:36;;;;;;;5.38;2.45;;;32.70;99.90;;;;;;5068932;28;20210;-78
2021/06/19 11:25:14;;;;;;;2.45;1.52;;;32.70;99.90;;;;;;5069338;28;20202;-78
2021/06/19 11:27:58;;;;;;;3.72;1.85;;;32.80;99.90;;;;;;5063635;28;20212;-77
2021/06/19 11:30:49;;;;;;;2.83;1.80;;;32.20;99.90;;;;;;5068697;28;20209;-78
2021/06/19 11:33:57;;;;;;;2.00;1.90;;;32.70;99.90;;;;;;5068754;28;20297;-78
2021/06/19 11:36:44;;;;;;;2.40;2.00;;;33.20;99.90;;;;;;5069358;28;20263;-78
2021/06/19 11:39:14;;;;;;;5.22;1.95;;;32.90;99.90;;;;;;5068003;28;20210;-78
2021/06/19 11:41:46;;;;;;;2.63;1.95;;;33.20;99.90;;;;;;5068465;28;20297;-78
2021/06/19 11:44:19;;;;;;;1.85;1.63;;;33.60;99.90;;;;;;5068460;28;20777;-79
2021/06/19 11:46:55;;;;;;;2.25;1.80;;;33.50;99.90;;;;;;5068681;28;20222;-78
2021/06/19 11:49:33;;;;;;;1.40;1.30;;;32.80;99.90;;;;;;5069032;28;20206;-78
2021/06/19 11:52:04;;;;;;;1.30;1.30;;;32.60;99.90;;;;;;5068272;28;20210;-77
2021/06/19 11:54:31;;;;;;;2.67;1.48;;;32.00;99.90;;;;;;5060888;28;20664;-78
2021/06/19 11:56:58;;;;;;;2.08;1.60;;;32.00;99.90;;;;;;5068079;28;20227;-77
2021/06/19 11:59:30;;;;;;;1.73;1.63;;;32.20;99.90;;;;;;5067829;28;20293;-78
2021/06/19 12:01:58;;;;;;;2.33;1.70;;;32.20;99.90;;;;;;5068411;28;20224;-78
2021/06/19 12:04:29;;;;;;;1.77;1.50;;;32.40;99.90;;;;;;5060411;28;20210;-78
2021/06/19 12:06:57;;;;;;;2.05;1.85;;;32.50;99.90;;;;;;5068715;28;20317;-78
2021/06/19 12:09:27;;;;;;;1.70;1.60;;;32.80;99.90;;;;;;5066310;28;20210;-78
2021/06/19 12:11:56;;;;;;;3.00;1.70;;;33.50;99.90;;;;;;5067121;28;20220;-77
2021/06/19 12:14:26;;;;;;;1.63;1.52;;;32.50;99.90;;;;;;5059901;28;20221;-76
2021/06/19 12:16:54;;;;;;;2.17;1.98;;;32.30;99.90;;;;;;5061424;28;20206;-77
2021/06/19 12:19:22;;;;;;;1.58;1.48;;;32.50;99.90;;;;;;5071679;28;20209;-77
2021/06/19 12:21:50;;;;;;;1.77;1.55;;;32.90;99.90;;;;;;5066284;28;20216;-77
2021/06/19 12:24:24;;;;;;;4.03;1.48;;;32.90;99.90;;;;;;5067480;28;20209;-78
2021/06/19 12:27:14;;;;;;;2.05;1.50;;;33.10;99.90;;;;;;5065935;28;20221;-77
2021/06/19 12:29:44;;;;;;;1.88;1.30;;;32.10;99.90;;;;;;5066929;28;20293;-77
2021/06/19 12:32:23;;;;;;;1.40;1.35;;;32.90;99.90;;;;;;5068322;28;20590;-77
2021/06/19 12:34:53;;;;;;;2.78;1.27;;;32.60;99.90;;;;;;5065012;28;20208;-78
2021/06/19 12:37:26;;;;;;;1.48;1.38;;;33.00;99.90;;;;;;5076822;28;20198;-78
2021/06/19 12:39:53;;;;;;;2.58;1.50;;;33.30;99.90;;;;;;5066880;28;20380;-77
2021/06/19 12:42:40;;;;;;;1.10;1.10;;;33.50;99.90;;;;;;5067010;28;20319;-71
2021/06/19 12:45:12;;;;;;;1.27;1.17;;;33.50;99.90;;;;;;5064102;28;20210;-71